createdAt,value
2019-05-23T00:02:35.298Z,9.60
2019-05-23T00:07:55.723Z,9.50
2019-05-23T00:10:26.114Z,9.40
2019-05-23T00:13:02.173Z,9.40
2019-05-23T00:18:39.556Z,9.30
2019-05-23T00:21:09.544Z,9.40
2019-05-23T00:23:39.460Z,9.30
2019-05-23T00:26:08.474Z,9.20
2019-05-23T00:28:42.589Z,9.20
2019-05-23T00:34:05.017Z,9.00
2019-05-23T00:36:35.493Z,8.80
2019-05-23T00:39:07.390Z,8.80
2019-05-23T00:41:37.420Z,8.70
2019-05-23T00:44:07.354Z,8.70
2019-05-23T00:46:37.599Z,8.70
2019-05-23T00:49:26.873Z,8.70
2019-05-23T00:51:56.678Z,8.70
2019-05-23T00:54:27.171Z,8.60
2019-05-23T00:56:57.188Z,8.60
2019-05-23T00:59:28.016Z,8.50
2019-05-23T01:01:57.929Z,8.50
2019-05-23T01:04:47.475Z,8.50
2019-05-23T01:07:17.260Z,8.50
2019-05-23T01:09:48.108Z,8.40
2019-05-23T01:12:18.404Z,8.40
2019-05-23T01:14:47.859Z,8.30
2019-05-23T01:17:18.795Z,8.30
2019-05-23T01:19:51.014Z,8.30
2019-05-23T01:22:19.909Z,8.30
2019-05-23T01:24:51.707Z,8.20
2019-05-23T01:27:20.591Z,8.20
2019-05-23T01:29:51.374Z,8.20
2019-05-23T01:35:09.090Z,8.10
2019-05-23T01:37:39.594Z,8.10
2019-05-23T01:40:08.839Z,8.10
2019-05-23T01:42:38.626Z,8.00
2019-05-23T01:48:07.394Z,8.00
2019-05-23T01:50:36.529Z,7.80
2019-05-23T01:53:13.892Z,7.70
2019-05-23T01:55:43.871Z,7.80
2019-05-23T01:58:14.192Z,7.80
2019-05-23T02:00:43.196Z,7.80
2019-05-23T02:03:12.769Z,7.90
2019-05-23T02:05:41.577Z,7.90
2019-05-23T02:08:13.817Z,7.90
2019-05-23T02:10:44.218Z,7.90
2019-05-23T02:13:14.149Z,7.90
2019-05-23T02:15:44.650Z,7.90
2019-05-23T02:18:14.096Z,7.80
2019-05-23T02:20:43.009Z,7.80
2019-05-23T02:23:12.951Z,7.80
2019-05-23T02:25:42.949Z,7.80
2019-05-23T02:28:17.794Z,7.80
2019-05-23T02:30:47.556Z,7.70
2019-05-23T02:33:16.421Z,7.70
2019-05-23T02:35:45.219Z,7.70
2019-05-23T02:38:37.151Z,7.60
2019-05-23T02:41:13.861Z,7.50
2019-05-23T02:43:44.071Z,7.50
2019-05-23T02:49:11.144Z,7.30
2019-05-23T02:51:39.561Z,7.20
2019-05-23T02:54:12.186Z,7.10
2019-05-23T02:56:40.595Z,7.10
2019-05-23T02:59:11.034Z,7.00
2019-05-23T03:01:42.095Z,6.90
2019-05-23T03:04:13.733Z,6.90
2019-05-23T03:06:44.409Z,6.90
2019-05-23T03:09:16.074Z,7.00
2019-05-23T03:11:47.348Z,7.00
2019-05-23T03:14:16.831Z,7.10
2019-05-23T03:16:56.468Z,7.10
2019-05-23T03:19:58.349Z,7.10
2019-05-23T03:22:57.178Z,7.10
2019-05-23T03:25:46.806Z,7.10
2019-05-23T03:28:33.043Z,7.10
2019-05-23T03:31:27.289Z,7.10
2019-05-23T03:33:36.333Z,7.10
2019-05-23T03:36:12.077Z,7.10
2019-05-23T03:38:43.615Z,7.10
2019-05-23T03:41:12.877Z,7.10
2019-05-23T03:43:42.063Z,7.10
2019-05-23T03:46:12.503Z,7.10
2019-05-23T03:48:48.087Z,7.10
2019-05-23T03:51:21.853Z,7.10
2019-05-23T03:53:56.524Z,7.10
2019-05-23T03:56:37.820Z,7.20
2019-05-23T03:59:08.113Z,7.20
2019-05-23T04:01:47.814Z,7.20
2019-05-23T04:04:08.045Z,7.20
2019-05-23T04:06:37.898Z,7.30
2019-05-23T04:09:08.157Z,7.40
2019-05-23T04:12:08.009Z,7.30
2019-05-23T04:14:39.938Z,7.30
2019-05-23T04:17:09.087Z,7.20
2019-05-23T04:25:41.315Z,7.30
2019-05-23T04:28:23.515Z,7.40
2019-05-23T04:30:52.585Z,7.50
2019-05-23T04:33:29.915Z,7.60
2019-05-23T04:35:59.213Z,7.60
2019-05-23T04:41:36.747Z,7.90
2019-05-23T04:44:06.533Z,8.00
2019-05-23T04:46:40.175Z,8.10
2019-05-23T04:49:09.129Z,8.20
2019-05-23T04:51:38.804Z,8.30
2019-05-23T04:54:09.045Z,8.40
2019-05-23T04:56:37.965Z,8.50
2019-05-23T04:59:07.348Z,8.60
2019-05-23T05:01:37.433Z,8.70
2019-05-23T05:04:10.712Z,8.80
2019-05-23T05:06:39.618Z,9.00
2019-05-23T05:09:08.957Z,9.10
2019-05-23T05:14:43.235Z,9.30
2019-05-23T05:20:15.865Z,9.50
2019-05-23T05:22:45.930Z,9.60
2019-05-23T05:25:29.479Z,9.70
2019-05-23T05:27:59.190Z,9.70
2019-05-23T05:30:28.961Z,9.80
2019-05-23T05:32:57.772Z,9.90
2019-05-23T05:35:32.254Z,10.00
2019-05-23T05:38:01.083Z,10.00
2019-05-23T05:40:37.891Z,10.10
2019-05-23T05:43:07.286Z,10.20
2019-05-23T05:45:37.122Z,10.20
2019-05-23T05:48:06.640Z,10.30
2019-05-23T05:50:36.677Z,10.40
2019-05-23T05:53:05.696Z,10.40
2019-05-23T05:55:34.922Z,10.50
2019-05-23T05:58:03.849Z,10.50
2019-05-23T06:00:49.600Z,10.70
2019-05-23T06:03:18.834Z,10.70
2019-05-23T06:05:53.107Z,10.80
2019-05-23T06:11:35.725Z,11.20
2019-05-23T06:14:04.980Z,11.30
2019-05-23T06:16:53.510Z,11.50
2019-05-23T06:19:22.744Z,11.60
2019-05-23T06:21:51.554Z,11.80
2019-05-23T06:24:39.213Z,12.00
2019-05-23T06:30:23.878Z,12.30
2019-05-23T06:32:53.915Z,12.40
2019-05-23T06:35:22.798Z,12.60
2019-05-23T06:37:51.925Z,12.70
2019-05-23T06:40:21.922Z,12.80
2019-05-23T06:42:52.078Z,12.80
2019-05-23T06:45:22.124Z,12.90
2019-05-23T06:47:55.470Z,13.00
2019-05-23T06:50:25.959Z,13.30
2019-05-23T06:52:54.970Z,13.30
2019-05-23T06:55:23.838Z,13.50
2019-05-23T06:57:53.002Z,13.50
2019-05-23T07:00:23.463Z,13.60
2019-05-23T07:02:56.964Z,13.80
2019-05-23T07:05:30.307Z,13.90
2019-05-23T07:07:59.392Z,14.00
2019-05-23T07:10:29.580Z,14.30
2019-05-23T07:12:58.693Z,14.30
2019-05-23T07:15:48.429Z,14.40
2019-05-23T07:18:19.459Z,14.50
2019-05-23T07:20:48.323Z,14.70
2019-05-23T07:26:13.916Z,14.80
2019-05-23T07:28:43.167Z,15.00
2019-05-23T07:31:14.604Z,15.10
2019-05-23T07:34:00.302Z,15.20
2019-05-23T07:36:14.409Z,15.20
2019-05-23T07:38:43.817Z,15.20
2019-05-23T07:41:14.302Z,15.40
2019-05-23T07:43:43.341Z,15.60
2019-05-23T07:46:12.598Z,15.80
2019-05-23T07:48:45.817Z,15.80
2019-05-23T07:51:14.875Z,16.00
2019-05-23T07:53:45.784Z,16.00
2019-05-23T07:56:16.272Z,16.00
2019-05-23T07:58:46.377Z,16.00
2019-05-23T08:01:19.978Z,16.00
2019-05-23T08:03:51.535Z,16.10
2019-05-23T08:06:21.153Z,16.10
2019-05-23T08:08:51.157Z,16.10
2019-05-23T08:11:23.450Z,16.20
2019-05-23T08:13:52.022Z,16.40
2019-05-23T08:16:20.348Z,16.50
2019-05-23T08:18:49.232Z,16.50
2019-05-23T08:21:19.181Z,16.60
2019-05-23T08:23:48.084Z,16.70
2019-05-23T08:26:18.652Z,16.70
2019-05-23T08:29:12.591Z,16.70
2019-05-23T08:31:18.981Z,17.00
2019-05-23T08:33:47.753Z,17.20
2019-05-23T08:36:16.724Z,17.40
2019-05-23T08:38:46.622Z,17.20
2019-05-23T08:41:15.336Z,17.40
2019-05-23T08:43:48.474Z,17.40
2019-05-23T08:46:17.765Z,17.30
2019-05-23T08:48:46.878Z,17.40
2019-05-23T08:54:10.300Z,17.70
2019-05-23T08:56:39.078Z,17.70
2019-05-23T08:59:11.104Z,17.80
2019-05-23T09:01:40.801Z,17.80
2019-05-23T09:04:11.296Z,17.90
2019-05-23T09:06:40.713Z,18.00
2019-05-23T09:09:28.422Z,18.00
2019-05-23T09:11:44.430Z,18.00
2019-05-23T09:14:14.558Z,17.90
2019-05-23T09:16:43.877Z,17.80
2019-05-23T09:19:13.893Z,18.00
2019-05-23T09:21:48.275Z,18.10
2019-05-23T09:24:20.007Z,18.30
2019-05-23T09:26:49.322Z,18.50
2019-05-23T09:29:18.203Z,19.00
2019-05-23T09:31:50.183Z,19.40
2019-05-23T09:34:20.228Z,19.30
2019-05-23T09:36:49.042Z,19.60
2019-05-23T09:39:19.126Z,19.60
2019-05-23T09:41:48.974Z,19.60
2019-05-23T09:44:17.807Z,19.50
2019-05-23T09:46:46.790Z,19.70
2019-05-23T09:49:15.887Z,19.70
2019-05-23T09:51:48.118Z,19.90
2019-05-23T09:54:25.840Z,19.80
2019-05-23T09:56:54.732Z,19.60
2019-05-23T09:59:25.827Z,19.30
2019-05-23T10:01:56.071Z,19.20
2019-05-23T10:04:24.958Z,19.50
2019-05-23T10:06:53.795Z,19.60
2019-05-23T10:09:23.589Z,19.80
2019-05-23T10:11:54.019Z,20.00
2019-05-23T10:14:26.491Z,19.70
2019-05-23T10:16:55.222Z,19.80
2019-05-23T10:19:24.116Z,20.30
2019-05-23T10:21:53.076Z,20.50
2019-05-23T10:24:21.995Z,20.60
2019-05-23T10:26:50.903Z,20.80
2019-05-23T10:29:20.733Z,20.90
2019-05-23T10:31:49.599Z,20.90
2019-05-23T10:34:18.415Z,21.00
2019-05-23T10:36:48.216Z,21.10
2019-05-23T10:39:19.619Z,21.20
2019-05-23T10:41:49.686Z,21.20
2019-05-23T10:44:18.792Z,20.90
2019-05-23T10:46:47.573Z,20.80
2019-05-23T10:49:16.606Z,20.50
2019-05-23T10:51:45.391Z,20.70
2019-05-23T10:54:14.185Z,20.90
2019-05-23T10:56:43.113Z,20.90
2019-05-23T10:59:11.896Z,21.20
2019-05-23T11:01:40.701Z,21.40
2019-05-23T11:04:09.489Z,21.70
2019-05-23T11:06:38.424Z,21.80
2019-05-23T11:09:09.403Z,22.10
2019-05-23T11:11:40.279Z,21.60
2019-05-23T11:14:12.660Z,21.70
2019-05-23T11:16:44.635Z,22.00
2019-05-23T11:19:13.484Z,21.80
2019-05-23T11:21:42.319Z,22.00
2019-05-23T11:24:12.176Z,22.10
2019-05-23T11:26:41.365Z,22.20
2019-05-23T11:29:10.387Z,22.00
2019-05-23T11:31:40.245Z,22.10
2019-05-23T11:34:09.404Z,22.10
2019-05-23T11:36:38.176Z,22.30
2019-05-23T11:39:11.208Z,22.40
2019-05-23T11:41:39.986Z,22.70
2019-05-23T11:44:08.876Z,23.10
2019-05-23T11:46:39.752Z,23.50
2019-05-23T11:49:08.575Z,23.30
2019-05-23T11:51:37.635Z,23.50
2019-05-23T11:54:09.224Z,23.90
2019-05-23T11:56:42.315Z,23.70
2019-05-23T11:59:11.545Z,23.70
2019-05-23T12:01:42.063Z,24.00
2019-05-23T12:04:12.694Z,24.30
2019-05-23T12:06:55.068Z,24.00
2019-05-23T12:09:21.547Z,23.90
2019-05-23T12:11:56.144Z,23.90
2019-05-23T12:14:26.992Z,23.90
2019-05-23T12:16:57.437Z,24.00
2019-05-23T12:19:26.772Z,23.70
2019-05-23T12:21:55.920Z,23.20
2019-05-23T12:24:24.742Z,23.10
2019-05-23T12:26:54.612Z,23.10
2019-05-23T12:29:23.580Z,23.60
2019-05-23T12:31:52.377Z,23.10
2019-05-23T12:34:22.367Z,23.00
2019-05-23T12:36:51.213Z,23.00
2019-05-23T12:39:22.298Z,23.00
2019-05-23T12:41:51.329Z,23.20
2019-05-23T12:44:20.617Z,23.40
2019-05-23T12:46:49.391Z,23.40
2019-05-23T12:49:28.064Z,23.70
2019-05-23T12:51:59.201Z,23.80
2019-05-23T12:54:28.224Z,23.50
2019-05-23T12:56:57.038Z,22.80
2019-05-23T12:59:26.703Z,22.90
2019-05-23T13:02:04.545Z,23.10
2019-05-23T13:04:34.112Z,23.30
2019-05-23T13:07:02.902Z,23.60
2019-05-23T13:09:32.031Z,24.10
2019-05-23T13:12:00.820Z,23.80
2019-05-23T13:14:30.677Z,23.90
2019-05-23T13:17:01.175Z,23.50
2019-05-23T13:22:23.165Z,23.40
2019-05-23T13:24:53.441Z,23.40
2019-05-23T13:27:23.022Z,23.40
2019-05-23T13:29:51.891Z,23.30
2019-05-23T13:32:20.866Z,23.30
2019-05-23T13:34:50.580Z,23.30
2019-05-23T13:37:20.247Z,23.40
2019-05-23T13:39:49.344Z,23.50
2019-05-23T13:42:23.676Z,23.90
2019-05-23T13:44:52.612Z,24.40
2019-05-23T13:47:22.472Z,25.00
2019-05-23T13:49:51.189Z,25.00
2019-05-23T13:52:20.026Z,24.20
2019-05-23T13:54:48.846Z,23.70
2019-05-23T13:57:17.665Z,23.90
2019-05-23T13:59:46.448Z,24.20
2019-05-23T14:02:16.656Z,24.30
2019-05-23T14:04:45.437Z,24.40
2019-05-23T14:07:14.996Z,24.10
2019-05-23T14:09:51.158Z,24.00
2019-05-23T14:12:21.975Z,23.90
2019-05-23T14:14:52.674Z,23.60
2019-05-23T14:17:31.363Z,23.30
2019-05-23T14:20:00.192Z,23.40
2019-05-23T14:22:30.146Z,23.80
2019-05-23T14:24:58.955Z,24.20
2019-05-23T14:27:47.715Z,24.70
2019-05-23T14:30:26.691Z,24.60
2019-05-23T14:32:59.539Z,24.40
2019-05-23T14:35:29.999Z,24.90
2019-05-23T14:38:07.412Z,25.20
2019-05-23T14:40:34.150Z,25.10
2019-05-23T14:43:05.658Z,25.00
2019-05-23T14:45:36.100Z,25.00
2019-05-23T14:48:17.112Z,24.60
2019-05-23T14:51:04.432Z,24.60
2019-05-23T14:59:39.798Z,24.60
2019-05-23T15:02:10.267Z,25.10
2019-05-23T15:04:39.316Z,25.30
2019-05-23T15:07:23.697Z,24.20
2019-05-23T15:09:52.485Z,23.80
2019-05-23T15:13:11.216Z,23.60
2019-05-23T15:15:40.003Z,24.30
2019-05-23T15:18:11.272Z,24.60
2019-05-23T15:20:40.166Z,25.00
2019-05-23T15:23:11.275Z,25.10
2019-05-23T15:25:40.061Z,25.20
2019-05-23T15:28:09.107Z,24.90
2019-05-23T15:30:38.149Z,24.90
2019-05-23T15:33:12.630Z,24.90
2019-05-23T15:35:41.615Z,25.00
2019-05-23T15:38:11.650Z,24.60
2019-05-23T15:40:40.461Z,25.00
2019-05-23T15:43:18.532Z,25.20
2019-05-23T15:45:47.546Z,25.50
2019-05-23T15:48:31.752Z,26.10
2019-05-23T15:51:00.565Z,26.30
2019-05-23T15:53:46.367Z,26.20
2019-05-23T15:56:28.931Z,26.00
2019-05-23T15:59:17.159Z,25.40
2019-05-23T16:01:53.936Z,25.60
2019-05-23T16:04:23.793Z,25.10
2019-05-23T16:06:53.467Z,24.90
2019-05-23T16:09:30.220Z,25.10
2019-05-23T16:11:54.931Z,25.60
2019-05-23T16:14:23.849Z,26.10
2019-05-23T16:16:56.894Z,26.90
2019-05-23T16:19:26.547Z,26.70
2019-05-23T16:21:55.600Z,26.30
2019-05-23T16:24:24.858Z,26.00
2019-05-23T16:26:54.031Z,26.00
2019-05-23T16:29:24.416Z,25.70
2019-05-23T16:31:53.346Z,25.20
2019-05-23T16:34:22.634Z,25.40
2019-05-23T16:36:51.551Z,25.60
2019-05-23T16:39:20.507Z,25.90
2019-05-23T16:42:08.433Z,25.30
2019-05-23T16:44:37.350Z,25.60
2019-05-23T16:47:18.655Z,25.60
2019-05-23T16:49:47.741Z,25.90
2019-05-23T16:52:16.610Z,25.60
2019-05-23T16:54:47.170Z,25.50
2019-05-23T16:57:20.397Z,25.60
2019-05-23T16:59:54.663Z,26.20
2019-05-23T17:02:34.673Z,26.50
2019-05-23T17:05:23.445Z,26.60
2019-05-23T17:07:56.785Z,26.60
2019-05-23T17:10:36.575Z,27.00
2019-05-23T17:13:07.307Z,27.10
2019-05-23T17:15:46.973Z,27.00
2019-05-23T17:18:17.323Z,26.80
2019-05-23T17:20:50.558Z,26.20
2019-05-23T17:23:41.471Z,25.40
2019-05-23T17:26:27.497Z,25.20
2019-05-23T17:28:57.580Z,25.80
2019-05-23T17:34:20.852Z,26.60
2019-05-23T17:36:57.398Z,26.60
2019-05-23T17:39:27.814Z,26.80
2019-05-23T17:41:56.641Z,27.00
2019-05-23T17:44:28.812Z,26.90
2019-05-23T17:46:57.711Z,26.70
2019-05-23T17:49:26.534Z,26.40
2019-05-23T17:51:55.308Z,26.60
2019-05-23T17:54:27.310Z,26.90
2019-05-23T17:56:56.078Z,27.10
2019-05-23T17:59:27.968Z,26.80
2019-05-23T18:01:57.113Z,26.60
2019-05-23T18:04:26.163Z,26.00
2019-05-23T18:06:55.421Z,25.50
2019-05-23T18:09:24.443Z,24.90
2019-05-23T18:11:55.494Z,24.30
2019-05-23T18:14:23.924Z,23.90
2019-05-23T18:16:52.756Z,23.40
2019-05-23T18:19:25.042Z,23.10
2019-05-23T18:21:55.259Z,22.90
2019-05-23T18:24:24.757Z,22.50
2019-05-23T18:26:53.535Z,22.30
2019-05-23T18:29:27.291Z,22.00
2019-05-23T18:31:56.132Z,21.70
2019-05-23T18:34:25.567Z,21.40
2019-05-23T18:36:56.148Z,21.10
2019-05-23T18:39:26.500Z,21.10
2019-05-23T18:41:55.724Z,21.00
2019-05-23T18:44:25.316Z,20.70
2019-05-23T18:46:58.922Z,20.70
2019-05-23T18:49:28.623Z,20.60
2019-05-23T18:52:04.810Z,20.50
2019-05-23T18:54:52.917Z,20.40
2019-05-23T18:57:21.729Z,20.20
2019-05-23T18:59:54.728Z,20.10
2019-05-23T19:02:24.235Z,20.00
2019-05-23T19:04:53.494Z,19.80
2019-05-23T19:10:16.948Z,19.40
2019-05-23T19:12:48.754Z,19.20
2019-05-23T19:15:17.837Z,19.10
2019-05-23T19:20:24.925Z,18.90
2019-05-23T19:25:57.505Z,18.50
2019-05-23T19:28:26.917Z,18.30
2019-05-23T19:31:04.193Z,18.20
2019-05-23T19:33:34.676Z,18.10
2019-05-23T19:36:17.090Z,18.00
2019-05-23T19:38:46.061Z,17.90
2019-05-23T19:41:37.889Z,17.80
2019-05-23T19:44:06.061Z,17.70
2019-05-23T19:46:40.102Z,17.60
2019-05-23T19:49:09.975Z,17.50
2019-05-23T19:51:53.886Z,17.30
2019-05-23T19:54:23.437Z,17.30
2019-05-23T19:56:52.364Z,17.10
2019-05-23T19:59:21.427Z,17.00
2019-05-23T20:02:05.521Z,16.90
2019-05-23T20:04:35.943Z,16.90
2019-05-23T20:07:05.756Z,16.80
2019-05-23T20:09:34.789Z,16.70
2019-05-23T20:12:04.629Z,16.70
2019-05-23T20:14:33.403Z,16.60
2019-05-23T20:17:02.183Z,16.50
2019-05-23T20:19:34.127Z,16.30
2019-05-23T20:22:02.909Z,16.20
2019-05-23T20:24:31.612Z,16.20
2019-05-23T20:27:00.418Z,16.10
2019-05-23T20:29:42.285Z,16.00
2019-05-23T20:32:13.102Z,15.90
2019-05-23T20:34:43.056Z,15.70
2019-05-23T20:37:11.836Z,15.50
2019-05-23T20:39:45.691Z,17.70
2019-05-23T20:42:14.499Z,15.40
2019-05-23T20:44:47.424Z,15.20
2019-05-23T20:47:16.503Z,15.20
2019-05-23T20:49:46.387Z,15.10
2019-05-23T20:52:15.719Z,15.00
2019-05-23T20:54:44.571Z,15.00
2019-05-23T20:57:13.853Z,14.90
2019-05-23T20:59:42.646Z,14.90
2019-05-23T21:02:11.692Z,14.90
2019-05-23T21:04:44.771Z,14.90
2019-05-23T21:07:13.560Z,15.00
2019-05-23T21:09:42.432Z,15.00
2019-05-23T21:12:28.334Z,15.00
2019-05-23T21:14:41.783Z,15.00
2019-05-23T21:17:31.350Z,15.10
2019-05-23T21:20:02.126Z,15.10
2019-05-23T21:22:31.163Z,15.20
2019-05-23T21:25:02.060Z,15.30
2019-05-23T21:27:30.923Z,15.30
2019-05-23T21:30:07.040Z,15.30
2019-05-23T21:32:35.840Z,15.30
2019-05-23T21:35:13.254Z,15.30
2019-05-23T21:37:42.106Z,15.20
2019-05-23T21:40:13.866Z,15.10
2019-05-23T21:42:47.616Z,15.00
2019-05-23T21:45:13.393Z,14.90
2019-05-23T21:47:48.482Z,14.80
2019-05-23T21:50:17.239Z,14.70
2019-05-23T21:52:48.049Z,14.50
2019-05-23T21:55:19.832Z,14.40
2019-05-23T21:57:48.877Z,14.40
2019-05-23T22:00:22.257Z,14.30
2019-05-23T22:02:51.129Z,14.30
2019-05-23T22:05:20.339Z,14.40
2019-05-23T22:07:49.133Z,14.40
2019-05-23T22:10:17.964Z,14.40
2019-05-23T22:13:01.736Z,14.40
2019-05-23T22:15:20.632Z,14.40
2019-05-23T22:17:49.917Z,14.50
2019-05-23T22:22:49.701Z,14.40
2019-05-23T22:25:21.490Z,14.60
2019-05-23T22:27:50.213Z,14.50
2019-05-23T22:30:31.493Z,14.60
2019-05-23T22:33:20.923Z,14.70
2019-05-23T22:35:51.803Z,14.80
2019-05-23T22:38:20.574Z,14.80
2019-05-23T22:41:01.747Z,14.70
2019-05-23T22:43:30.550Z,14.70
2019-05-23T22:46:05.695Z,14.70
2019-05-23T22:48:34.489Z,14.60
2019-05-23T22:51:06.788Z,14.60
2019-05-23T22:53:35.589Z,14.60
2019-05-23T22:56:28.600Z,14.60
2019-05-23T22:58:57.391Z,14.50
2019-05-23T23:01:32.705Z,14.50
2019-05-23T23:04:01.517Z,14.50
2019-05-23T23:06:42.752Z,14.40
2019-05-23T23:09:12.324Z,14.30
2019-05-23T23:11:41.398Z,14.30
2019-05-23T23:14:10.327Z,14.30
2019-05-23T23:16:54.385Z,14.30
2019-05-23T23:19:23.205Z,14.30
2019-05-23T23:21:56.022Z,14.30
2019-05-23T23:24:24.902Z,14.30
2019-05-23T23:26:59.832Z,14.20
2019-05-23T23:29:28.606Z,14.20
2019-05-23T23:32:04.075Z,14.10
2019-05-23T23:34:36.070Z,14.10
2019-05-23T23:37:04.875Z,14.10
2019-05-23T23:39:37.105Z,14.10
2019-05-23T23:42:06.779Z,14.00
2019-05-23T23:44:39.238Z,14.00
2019-05-23T23:47:30.291Z,13.90
2019-05-23T23:50:19.860Z,13.90
2019-05-23T23:58:42.438Z,13.70
